Time;durP1;ratioP1;P1;durP2;ratioP2;P2;SDS_P1;SDS_P2;PMS_P1;PMS_P2;Temp;Humidity;BMP_temperature;BMP_pressure;BME280_temperature;BME280_humidity;BME280_pressure;Samples;Min_cycle;Max_cycle;Signal;HPM_P1;HPM_P2
2021/12/12 00:00:02;;;;;;;1054.80;982.38;;;;;;;-0.29;76.08;101767.00;685324;28;137377;-70
2021/12/12 00:00:36;;;;;;;1066.28;993.67;;;;;;;-0.31;76.12;101771.50;685573;28;137812;-70
2021/12/12 00:01:01;;;;;;;1069.22;996.40;;;;;;;-0.31;75.95;101758.25;684584;28;65819;-70
2021/12/12 00:01:25;;;;;;;1070.25;997.55;;;;;;;-0.26;75.86;101761.53;685434;28;113547;-70
2021/12/12 00:01:50;;;;;;;1071.30;998.50;;;;;;;-0.28;75.83;101766.03;687424;28;69480;-70
2021/12/12 00:02:21;;;;;;;1063.93;991.47;;;;;;;-0.34;75.98;101759.28;685996;28;115122;-70
2021/12/12 00:02:50;;;;;;;1061.32;988.88;;;;;;;-0.32;76.10;101761.84;681690;28;136294;-70
2021/12/12 00:03:31;;;;;;;1083.68;999.90;;;;;;;-0.33;76.15;101765.44;685299;28;137878;-70
2021/12/12 00:03:56;;;;;;;1080.18;999.90;;;;;;;-0.32;76.00;101769.81;685624;28;136404;-70
2021/12/12 00:04:21;;;;;;;1068.85;996.38;;;;;;;-0.34;76.22;101766.41;684877;28;136219;-70
2021/12/12 00:04:46;;;;;;;1048.80;981.83;;;;;;;-0.31;76.13;101764.44;687457;28;136321;-70
2021/12/12 00:05:09;;;;;;;1058.00;986.95;;;;;;;-0.31;76.08;101767.09;689872;28;92427;-70
2021/12/12 00:05:33;;;;;;;1066.78;994.25;;;;;;;-0.28;76.16;101768.69;690737;28;69407;-70
2021/12/12 00:05:55;;;;;;;1066.38;994.22;;;;;;;-0.32;76.20;101767.16;688964;28;115309;-70
2021/12/12 00:06:19;;;;;;;1072.38;999.90;;;;;;;-0.29;76.13;101769.66;691459;28;45479;-70
2021/12/12 00:06:43;;;;;;;1075.00;999.90;;;;;;;-0.30;76.05;101767.94;687798;28;92327;-70
2021/12/12 00:07:08;;;;;;;1076.25;999.90;;;;;;;-0.29;76.34;101778.47;687557;28;92279;-70
2021/12/12 00:07:31;;;;;;;1080.65;999.90;;;;;;;-0.28;76.27;101774.00;686615;28;101860;-70
2021/12/12 00:07:52;;;;;;;1078.80;999.90;;;;;;;-0.29;76.19;101769.66;684570;28;69386;-70
2021/12/12 00:08:14;;;;;;;1069.03;996.40;;;;;;;-0.28;76.18;101776.66;688755;28;23411;-70
2021/12/12 00:08:36;;;;;;;1042.75;974.05;;;;;;;-0.30;76.22;101773.25;688122;28;46314;-70
2021/12/12 00:09:04;;;;;;;1063.72;993.60;;;;;;;-0.31;76.23;101764.44;686446;28;44942;-70
2021/12/12 00:09:28;;;;;;;1078.47;999.90;;;;;;;-0.31;76.26;101774.16;683063;28;138134;-70
2021/12/12 00:09:52;;;;;;;1070.28;997.90;;;;;;;-0.30;76.20;101774.09;686829;28;115015;-70
2021/12/12 00:10:17;;;;;;;1074.03;999.90;;;;;;;-0.30;76.11;101768.78;687215;28;92232;-70
2021/12/12 00:10:43;;;;;;;1065.97;996.08;;;;;;;-0.29;76.20;101775.81;687673;28;92333;-70
2021/12/12 00:11:06;;;;;;;1071.70;999.80;;;;;;;-0.29;76.13;101774.97;686289;28;137670;-70
2021/12/12 00:11:31;;;;;;;1067.50;996.78;;;;;;;-0.28;76.20;101771.34;690761;28;59723;-70
2021/12/12 00:11:53;;;;;;;1056.65;986.90;;;;;;;-0.30;76.18;101771.44;689550;28;115193;-70
2021/12/12 00:12:23;;;;;;;1060.28;989.25;;;;;;;-0.30;76.21;101768.78;691645;28;45224;-70
2021/12/12 00:12:47;;;;;;;1066.05;996.20;;;;;;;-0.30;76.16;101775.91;687534;28;137742;-70
2021/12/12 00:13:13;;;;;;;1068.72;998.83;;;;;;;-0.31;76.29;101777.72;690083;28;92502;-70
2021/12/12 00:13:38;;;;;;;1074.00;999.90;;;;;;;-0.31;76.20;101769.75;685739;28;137959;-70
2021/12/12 00:14:01;;;;;;;1080.00;999.90;;;;;;;-0.27;76.19;101773.94;686515;28;115245;-70
2021/12/12 00:14:26;;;;;;;1073.40;999.90;;;;;;;-0.26;76.16;101766.84;686964;28;31940;-70
2021/12/12 00:14:48;;;;;;;1069.03;999.83;;;;;;;-0.27;76.28;101771.28;683711;28;113913;-70
2021/12/12 00:15:12;;;;;;;1066.65;997.22;;;;;;;-0.26;76.11;101772.16;686751;28;35607;-70
2021/12/12 00:15:33;;;;;;;1069.07;999.17;;;;;;;-0.26;76.15;101772.16;687972;28;35655;-70
2021/12/12 00:15:54;;;;;;;1068.88;999.63;;;;;;;-0.29;76.07;101762.53;687582;28;46648;-70
2021/12/12 00:16:17;;;;;;;1060.65;991.75;;;;;;;-0.27;76.10;101770.44;690407;28;22137;-69
2021/12/12 00:16:41;;;;;;;1056.78;987.85;;;;;;;-0.31;76.08;101769.75;690893;28;70107;-70
2021/12/12 00:17:06;;;;;;;1045.30;978.67;;;;;;;-0.29;76.13;101775.81;686489;28;72250;-70
2021/12/12 00:17:28;;;;;;;1063.00;993.20;;;;;;;-0.29;76.11;101774.97;686225;28;112296;-70
2021/12/12 00:17:50;;;;;;;1073.60;999.90;;;;;;;-0.29;76.24;101767.84;686218;28;4103;-70
2021/12/12 00:18:11;;;;;;;1071.63;999.90;;;;;;;-0.31;75.84;101769.75;686799;28;28980;-70
2021/12/12 00:18:33;;;;;;;1070.90;999.90;;;;;;;-0.27;76.08;101765.13;686599;28;21911;-70
2021/12/12 00:18:55;;;;;;;1073.13;999.90;;;;;;;-0.29;76.17;101769.66;685975;28;44374;-70
2021/12/12 00:19:19;;;;;;;1065.93;996.13;;;;;;;-0.31;76.17;101767.09;685979;28;46235;-70
2021/12/12 00:19:41;;;;;;;1064.57;996.00;;;;;;;-0.29;75.80;101773.16;685673;28;91024;-70
2021/12/12 00:20:05;;;;;;;1067.70;998.88;;;;;;;-0.28;75.87;101772.22;688952;28;45243;-70
2021/12/12 00:20:27;;;;;;;1058.95;990.78;;;;;;;-0.29;75.92;101773.16;687308;28;93007;-70
2021/12/12 00:20:49;;;;;;;1054.55;986.55;;;;;;;-0.32;75.70;101773.31;688794;28;44416;-70
2021/12/12 00:21:13;;;;;;;1061.05;992.15;;;;;;;-0.32;75.94;101775.13;688954;28;46380;-70
2021/12/12 00:21:35;;;;;;;1060.18;989.67;;;;;;;-0.32;75.95;101769.81;687503;28;92458;-71
2021/12/12 00:21:59;;;;;;;1074.78;999.90;;;;;;;-0.31;76.14;101774.16;688799;28;46461;-71
2021/12/12 00:22:25;;;;;;;1079.13;999.90;;;;;;;-0.29;76.10;101775.81;687344;28;89480;-71
2021/12/12 00:22:48;;;;;;;1072.63;999.42;;;;;;;-0.29;76.02;101772.31;684573;28;138176;-71
2021/12/12 00:23:09;;;;;;;1070.07;997.63;;;;;;;-0.28;75.97;101777.53;687895;28;68975;-69
2021/12/12 00:23:30;;;;;;;1073.78;999.90;;;;;;;-0.27;75.89;101770.44;689376;28;22178;-70
2021/12/12 00:23:52;;;;;;;1075.50;999.90;;;;;;;-0.27;75.95;101775.75;688775;28;44656;-71
2021/12/12 00:24:15;;;;;;;1074.53;999.90;;;;;;;-0.26;75.94;101775.66;689538;28;22468;-70
2021/12/12 00:24:43;;;;;;;1065.20;993.70;;;;;;;-0.29;76.04;101772.31;688211;28;59901;-71
2021/12/12 00:25:06;;;;;;;1071.15;999.90;;;;;;;-0.28;75.84;101777.53;688660;28;44454;-71
2021/12/12 00:25:32;;;;;;;1071.68;999.90;;;;;;;-0.28;76.01;101766.03;686996;28;45232;-70
2021/12/12 00:25:57;;;;;;;1076.78;999.90;;;;;;;-0.28;75.96;101766.94;686656;28;137898;-71
2021/12/12 00:26:20;;;;;;;1077.25;999.90;;;;;;;-0.28;76.18;101777.53;687881;28;115098;-71
2021/12/12 00:26:43;;;;;;;1076.97;999.90;;;;;;;-0.29;76.12;101773.16;689562;28;69889;-70
2021/12/12 00:27:04;;;;;;;1072.75;999.90;;;;;;;-0.28;76.16;101774.00;685996;28;69210;-70
2021/12/12 00:27:28;;;;;;;1063.68;996.47;;;;;;;-0.27;76.12;101775.75;685823;28;25771;-71
2021/12/12 00:27:49;;;;;;;1058.72;992.45;;;;;;;-0.26;76.03;101770.34;682456;28;69153;-70
2021/12/12 00:28:11;;;;;;;1047.50;982.67;;;;;;;-0.27;76.03;101776.59;685771;28;21260;-69
2021/12/12 00:28:33;;;;;;;1065.70;999.55;;;;;;;-0.28;75.93;101771.34;683877;28;69460;-70
2021/12/12 00:28:55;;;;;;;1073.65;999.90;;;;;;;-0.27;76.06;101767.78;686398;28;21520;-71
2021/12/12 00:29:17;;;;;;;1061.15;994.85;;;;;;;-0.28;75.94;101774.88;687856;28;44156;-71
2021/12/12 00:29:38;;;;;;;1061.43;994.72;;;;;;;-0.28;76.04;101779.31;688663;28;46445;-70
2021/12/12 00:30:03;;;;;;;1073.38;999.90;;;;;;;-0.29;76.02;101780.28;689637;28;46389;-71
2021/12/12 00:30:26;;;;;;;1045.60;980.60;;;;;;;-0.28;76.12;101784.63;684499;28;91788;-70
2021/12/12 00:30:50;;;;;;;1043.00;976.40;;;;;;;-0.27;75.91;101779.25;685154;28;69386;-70
2021/12/12 00:31:14;;;;;;;1073.03;999.90;;;;;;;-0.27;75.95;101779.25;684223;28;92450;-70
2021/12/12 00:31:36;;;;;;;1072.70;999.90;;;;;;;-0.28;75.73;101777.53;684050;28;92140;-70
2021/12/12 00:32:02;;;;;;;1070.95;999.78;;;;;;;-0.30;75.90;101775.91;686684;28;69401;-71
2021/12/12 00:32:25;;;;;;;1076.60;999.90;;;;;;;-0.31;75.83;101774.16;686266;28;113526;-70
2021/12/12 00:32:49;;;;;;;1076.20;999.90;;;;;;;-0.28;75.87;101781.97;687009;28;69286;-71
2021/12/12 00:33:11;;;;;;;1075.38;999.90;;;;;;;-0.29;75.85;101781.13;687115;28;92383;-70
2021/12/12 00:33:32;;;;;;;1072.78;999.90;;;;;;;-0.29;75.93;101782.94;688571;28;45317;-71
2021/12/12 00:33:55;;;;;;;1076.68;999.90;;;;;;;-0.29;75.92;101777.63;689756;28;21276;-70
2021/12/12 00:34:22;;;;;;;1074.53;999.90;;;;;;;-0.29;75.87;101778.47;687254;28;92097;-69
2021/12/12 00:34:47;;;;;;;1069.80;999.90;;;;;;;-0.29;75.99;101780.28;686532;28;110777;-70
2021/12/12 00:35:12;;;;;;;1079.55;999.90;;;;;;;-0.26;76.02;101782.78;683910;28;68242;-70
2021/12/12 00:35:40;;;;;;;1070.40;999.90;;;;;;;-0.26;75.82;101782.78;678602;28;138409;-70
2021/12/12 00:36:02;;;;;;;1056.85;989.25;;;;;;;-0.23;75.88;101783.47;679666;28;115250;-70
2021/12/12 00:36:24;;;;;;;1049.43;982.92;;;;;;;-0.24;75.81;101787.03;682133;28;44299;-70
2021/12/12 00:36:48;;;;;;;1048.40;981.55;;;;;;;-0.25;75.91;101779.16;680476;28;67891;-70
2021/12/12 00:37:09;;;;;;;1000.58;940.53;;;;;;;-0.22;75.85;101785.19;684612;28;69210;-70
2021/12/12 00:37:31;;;;;;;1017.20;956.55;;;;;;;-0.22;75.69;101784.31;687364;28;46574;-70
2021/12/12 00:37:59;;;;;;;1037.55;975.22;;;;;;;-0.24;75.50;101776.41;687989;28;22340;-70
2021/12/12 00:38:24;;;;;;;1055.83;989.33;;;;;;;-0.21;75.59;101788.69;684842;28;159203;-70
2021/12/12 00:38:51;;;;;;;1061.05;993.45;;;;;;;-0.23;75.66;101782.59;685514;28;137974;-70
2021/12/12 00:39:15;;;;;;;1068.10;999.10;;;;;;;-0.25;75.66;101789.78;684822;28;137943;-70
2021/12/12 00:39:39;;;;;;;1071.85;999.90;;;;;;;-0.24;75.52;101789.69;683385;28;92286;-70
2021/12/12 00:40:04;;;;;;;1070.95;999.90;;;;;;;-0.27;75.59;101787.19;683481;28;113249;-70
2021/12/12 00:40:28;;;;;;;1073.47;999.90;;;;;;;-0.24;75.72;101796.81;684222;28;92585;-70
2021/12/12 00:40:51;;;;;;;1067.28;999.25;;;;;;;-0.24;75.57;101786.19;683581;28;114920;-69
2021/12/12 00:41:18;;;;;;;1053.07;986.45;;;;;;;-0.22;75.56;101794.94;683605;28;69148;-70
2021/12/12 00:41:44;;;;;;;1065.03;996.40;;;;;;;-0.28;75.52;101780.19;685086;28;137899;-70
2021/12/12 00:42:08;;;;;;;1071.43;999.90;;;;;;;-0.21;75.50;101786.88;678107;28;162798;-70
2021/12/12 00:42:36;;;;;;;1072.60;999.90;;;;;;;-0.24;75.52;101789.69;677361;29;89516;-70
2021/12/12 00:43:04;;;;;;;1085.25;999.90;;;;;;;-0.24;75.52;101787.03;650195;28;156588;-70
2021/12/12 00:43:29;;;;;;;1076.65;999.90;;;;;;;-0.27;75.61;101783.69;675899;29;137660;-70
2021/12/12 00:43:51;;;;;;;1073.50;999.90;;;;;;;-0.28;75.50;101781.97;678521;28;94100;-70
2021/12/12 00:44:15;;;;;;;1065.72;995.45;;;;;;;-0.24;75.63;101786.19;680735;29;33055;-70
2021/12/12 00:44:42;;;;;;;1064.95;994.03;;;;;;;-0.24;75.73;101787.03;681741;28;51835;-70
2021/12/12 00:45:07;;;;;;;1067.35;996.03;;;;;;;-0.34;75.53;101769.91;678939;28;138079;-70
2021/12/12 00:45:28;;;;;;;1065.90;994.78;;;;;;;-0.29;75.55;101781.13;682128;28;114909;-70
2021/12/12 00:45:51;;;;;;;1071.70;999.90;;;;;;;-0.25;75.53;101795.09;686229;28;45406;-70
2021/12/12 00:46:14;;;;;;;1072.57;999.90;;;;;;;-0.26;75.50;101793.41;689872;28;69377;-70
2021/12/12 00:46:37;;;;;;;1056.10;989.10;;;;;;;-0.28;75.65;101792.59;689719;28;92325;-70
2021/12/12 00:47:01;;;;;;;1027.85;966.60;;;;;;;-0.25;75.53;101797.75;691108;28;46596;-70
2021/12/12 00:47:23;;;;;;;1045.30;982.17;;;;;;;-0.29;75.64;101796.22;689629;28;91809;-69
2021/12/12 00:47:45;;;;;;;1062.22;995.25;;;;;;;-0.26;75.49;101802.22;690025;28;46393;-70
2021/12/12 00:48:07;;;;;;;1066.68;998.88;;;;;;;-0.29;75.53;101790.91;689981;28;69468;-70
2021/12/12 00:48:29;;;;;;;1026.47;965.67;;;;;;;-0.27;75.73;101803.13;692897;28;1392;-70
2021/12/12 00:48:50;;;;;;;1028.22;967.40;;;;;;;-0.27;75.57;101799.63;688519;28;45234;-70
2021/12/12 00:49:13;;;;;;;1032.15;971.08;;;;;;;-0.28;75.77;101809.41;689507;28;22323;-70
2021/12/12 00:49:36;;;;;;;1036.35;974.90;;;;;;;-0.28;75.88;101805.88;687812;28;68198;-70
2021/12/12 00:49:58;;;;;;;1067.22;998.45;;;;;;;-0.28;75.76;101804.09;687541;28;67342;-70
2021/12/12 00:50:22;;;;;;;1075.53;999.90;;;;;;;-0.28;75.84;101800.56;689344;28;21347;-70
2021/12/12 00:50:44;;;;;;;1075.65;999.90;;;;;;;-0.28;75.73;101806.75;686966;28;92234;-70
2021/12/12 00:51:08;;;;;;;1067.60;995.63;;;;;;;-0.27;75.87;101813.75;688890;28;46282;-70
2021/12/12 00:51:32;;;;;;;1058.90;992.33;;;;;;;-0.24;75.73;101807.44;686426;28;115095;-70
2021/12/12 00:51:55;;;;;;;1060.45;995.03;;;;;;;-0.23;75.69;101812.66;689392;28;92249;-70
2021/12/12 00:52:17;;;;;;;1055.38;990.45;;;;;;;-0.22;75.61;101813.50;689315;28;67180;-70
2021/12/12 00:52:43;;;;;;;1056.55;991.50;;;;;;;-0.22;75.73;101809.09;689024;28;10133;-70
2021/12/12 00:53:05;;;;;;;1069.50;999.67;;;;;;;-0.23;75.77;101809.16;687597;28;115728;-70
2021/12/12 00:53:27;;;;;;;1074.95;999.90;;;;;;;-0.24;75.58;101805.63;687022;28;46407;-70
2021/12/12 00:53:51;;;;;;;1074.35;999.90;;;;;;;-0.23;75.50;101820.63;687844;28;22400;-70
2021/12/12 00:54:15;;;;;;;1075.90;999.90;;;;;;;-0.23;75.56;101811.81;684802;28;114900;-70
2021/12/12 00:54:37;;;;;;;1073.30;999.90;;;;;;;-0.23;75.52;101817.13;685983;28;90319;-70
2021/12/12 00:54:58;;;;;;;1071.25;999.38;;;;;;;-0.22;75.57;101818.81;686772;28;46111;-70
2021/12/12 00:55:20;;;;;;;1062.47;996.67;;;;;;;-0.23;75.61;101810.00;690044;28;23465;-70
2021/12/12 00:55:45;;;;;;;1049.20;986.70;;;;;;;-0.23;75.52;101817.97;691471;28;46094;-70
2021/12/12 00:56:06;;;;;;;1033.72;972.50;;;;;;;-0.21;75.59;101818.75;688985;28;115767;-70
2021/12/12 00:56:28;;;;;;;1003.10;943.92;;;;;;;-0.25;75.70;101805.72;688070;28;44372;-70
2021/12/12 00:56:58;;;;;;;1021.70;960.90;;;;;;;-0.25;75.56;101817.22;687734;28;58426;-70
2021/12/12 00:57:23;;;;;;;1011.58;951.55;;;;;;;-0.21;75.51;101812.59;687196;28;69394;-70
2021/12/12 00:57:52;;;;;;;995.20;936.53;;;;;;;-0.23;75.49;101817.97;686745;28;58958;-70
2021/12/12 00:58:16;;;;;;;1000.83;941.75;;;;;;;-0.26;75.50;101810.16;685445;28;133125;-70
2021/12/12 00:58:39;;;;;;;992.78;934.25;;;;;;;-0.25;75.54;101811.91;687168;28;90566;-70
2021/12/12 00:59:01;;;;;;;997.30;938.15;;;;;;;-0.23;75.51;101819.78;686390;28;92334;-70
2021/12/12 00:59:23;;;;;;;993.72;935.28;;;;;;;-0.28;75.44;101809.41;691218;28;26853;-70
2021/12/12 00:59:47;;;;;;;981.60;923.90;;;;;;;-0.24;75.30;101816.25;692969;28;1088;-70
2021/12/12 01:00:14;;;;;;;984.22;926.30;;;;;;;-0.23;75.36;101817.13;689763;28;92240;-70
2021/12/12 01:00:50;;;;;;;965.45;909.10;;;;;;;-0.25;75.31;101814.56;688142;28;138079;-70
2021/12/12 01:01:16;;;;;;;989.58;931.28;;;;;;;-0.21;75.46;101818.75;687552;28;137272;-70
2021/12/12 01:01:42;;;;;;;1024.13;961.88;;;;;;;-0.26;75.26;101820.78;686203;28;71820;-70
2021/12/12 01:02:05;;;;;;;1062.57;991.33;;;;;;;-0.24;75.39;101823.38;685400;28;105582;-70
2021/12/12 01:02:29;;;;;;;1066.93;994.60;;;;;;;-0.22;75.48;101826.78;686684;28;67460;-70
2021/12/12 01:02:54;;;;;;;1063.38;990.88;;;;;;;-0.22;75.40;101826.78;684869;28;90477;-70
2021/12/12 01:03:19;;;;;;;1071.05;998.30;;;;;;;-0.25;75.38;101817.22;685157;28;114887;-70
2021/12/12 01:03:42;;;;;;;1077.93;999.90;;;;;;;-0.27;75.43;101824.38;685894;28;114975;-70
2021/12/12 01:04:06;;;;;;;1074.85;999.90;;;;;;;-0.26;75.39;101826.09;686914;28;89968;-70
2021/12/12 01:04:33;;;;;;;1085.20;999.90;;;;;;;-0.28;75.43;101828.00;686798;28;92222;-70
2021/12/12 01:04:59;;;;;;;1085.40;999.90;;;;;;;-0.32;75.41;101821.09;685218;28;137794;-70
2021/12/12 01:05:21;;;;;;;1082.65;999.90;;;;;;;-0.29;75.37;101820.09;685469;28;137266;-70
2021/12/12 01:05:45;;;;;;;1071.75;999.90;;;;;;;-0.27;75.24;101820.88;688908;28;45207;-70
2021/12/12 01:06:08;;;;;;;1075.25;999.90;;;;;;;-0.28;75.44;101811.19;691375;28;36342;-70
2021/12/12 01:06:30;;;;;;;1059.72;990.60;;;;;;;-0.27;75.38;101816.41;690744;28;58479;-70
2021/12/12 01:06:53;;;;;;;996.58;937.65;;;;;;;-0.24;75.28;101821.56;691760;28;22391;-70
2021/12/12 01:07:17;;;;;;;983.17;925.55;;;;;;;-0.26;75.51;101812.81;690516;28;67040;-70
2021/12/12 01:07:42;;;;;;;959.75;903.80;;;;;;;-0.23;75.35;101825.09;688267;28;92335;-70
2021/12/12 01:08:04;;;;;;;935.97;881.38;;;;;;;-0.24;75.38;101823.38;687239;28;115092;-70
2021/12/12 01:08:26;;;;;;;978.33;921.10;;;;;;;-0.26;75.33;101818.13;688536;28;43931;-70
2021/12/12 01:08:50;;;;;;;960.30;904.20;;;;;;;-0.25;75.34;101818.97;688399;28;46260;-70
2021/12/12 01:09:14;;;;;;;957.22;901.35;;;;;;;-0.26;75.38;101815.47;686985;28;92100;-70
2021/12/12 01:09:38;;;;;;;964.92;908.67;;;;;;;-0.26;75.32;101815.47;687220;28;90199;-70
2021/12/12 01:10:06;;;;;;;909.53;856.80;;;;;;;-0.30;75.31;101813.91;686352;28;114908;-70
2021/12/12 01:10:32;;;;;;;936.42;881.85;;;;;;;-0.29;75.40;101820.09;685590;28;107169;-70
2021/12/12 01:10:56;;;;;;;966.65;910.30;;;;;;;-0.32;75.38;101814.94;683905;28;138136;-70
2021/12/12 01:11:21;;;;;;;972.30;915.40;;;;;;;-0.31;75.32;101816.66;685993;28;92391;-70
2021/12/12 01:11:46;;;;;;;967.97;911.42;;;;;;;-0.32;75.48;101821.09;685072;28;115089;-70
2021/12/12 01:12:12;;;;;;;959.85;903.78;;;;;;;-0.34;75.38;101815.03;684031;28;138671;-70
2021/12/12 01:12:35;;;;;;;991.00;932.60;;;;;;;-0.35;75.44;101809.81;681740;28;137646;-70
2021/12/12 01:13:00;;;;;;;971.88;915.00;;;;;;;-0.30;75.39;101810.41;682906;28;46856;-71
2021/12/12 01:13:22;;;;;;;981.67;924.25;;;;;;;-0.28;75.41;101813.84;687322;28;61338;-71
2021/12/12 01:13:46;;;;;;;949.20;894.00;;;;;;;-0.28;75.19;101811.19;687378;28;26325;-71
2021/12/12 01:14:11;;;;;;;945.08;890.05;;;;;;;-0.30;75.30;101813.06;684943;28;115408;-71
2021/12/12 01:14:35;;;;;;;987.95;929.85;;;;;;;-0.30;75.41;101816.56;687305;28;92272;-71
2021/12/12 01:15:02;;;;;;;1016.60;955.70;;;;;;;-0.31;75.41;101812.22;689581;28;26002;-71
2021/12/12 01:15:30;;;;;;;987.10;928.70;;;;;;;-0.33;75.51;101814.09;686570;28;97176;-71
2021/12/12 01:16:00;;;;;;;951.13;895.33;;;;;;;-0.32;75.47;101820.25;685378;28;137812;-71
2021/12/12 01:16:25;;;;;;;989.45;931.35;;;;;;;-0.36;75.38;101803.66;687757;28;69233;-71
2021/12/12 01:16:51;;;;;;;984.25;926.65;;;;;;;-0.34;75.33;101809.72;686888;28;91699;-71
2021/12/12 01:17:18;;;;;;;955.70;899.67;;;;;;;-0.33;75.53;101811.44;684012;28;157895;-71
2021/12/12 01:17:43;;;;;;;945.58;890.42;;;;;;;-0.33;75.60;101807.91;682527;28;113636;-71
2021/12/12 01:18:08;;;;;;;964.55;908.13;;;;;;;-0.35;75.48;101810.66;685473;28;92368;-71
2021/12/12 01:18:42;;;;;;;935.65;881.20;;;;;;;-0.34;75.43;101812.38;686141;28;115201;-71
2021/12/12 01:19:06;;;;;;;906.90;854.40;;;;;;;-0.35;75.56;101815.97;683411;28;137166;-71
2021/12/12 01:19:30;;;;;;;922.75;869.22;;;;;;;-0.40;75.39;101794.97;686468;28;114229;-71
2021/12/12 01:19:56;;;;;;;940.95;886.17;;;;;;;-0.32;75.63;101809.63;687064;28;90697;-71
2021/12/12 01:20:23;;;;;;;935.97;881.63;;;;;;;-0.32;75.45;101807.84;686534;28;113536;-71
2021/12/12 01:20:50;;;;;;;945.17;890.08;;;;;;;-0.31;75.57;101812.22;684992;28;138148;-71
2021/12/12 01:21:16;;;;;;;948.97;893.72;;;;;;;-0.31;75.39;101816.66;687382;28;157904;-71
2021/12/12 01:21:41;;;;;;;964.28;908.05;;;;;;;-0.33;75.34;101806.13;687479;28;138472;-71
2021/12/12 01:22:08;;;;;;;960.22;904.22;;;;;;;-0.35;75.47;101805.34;685552;28;136394;-71
2021/12/12 01:22:36;;;;;;;954.03;898.42;;;;;;;-0.35;75.29;101810.66;688139;28;138124;-71
2021/12/12 01:23:02;;;;;;;982.20;924.65;;;;;;;-0.36;75.34;101803.66;686703;28;157601;-71
2021/12/12 01:23:27;;;;;;;992.47;934.28;;;;;;;-0.41;75.32;101798.56;684648;28;160870;-71
2021/12/12 01:23:52;;;;;;;963.90;907.65;;;;;;;-0.39;75.49;101801.16;685630;28;137384;-71
2021/12/12 01:24:19;;;;;;;957.42;901.53;;;;;;;-0.43;75.28;101796.94;686356;28;115164;-71
2021/12/12 01:24:45;;;;;;;966.47;910.08;;;;;;;-0.43;75.35;101804.88;685456;28;137983;-70
2021/12/12 01:25:09;;;;;;;981.15;923.63;;;;;;;-0.44;75.48;101795.19;685670;28;138231;-70
2021/12/12 01:25:42;;;;;;;988.25;930.25;;;;;;;-0.47;75.45;101801.53;688711;28;112979;-70
2021/12/12 01:26:05;;;;;;;968.35;911.72;;;;;;;-0.46;75.32;101799.75;688221;28;137541;-70
2021/12/12 01:26:28;;;;;;;953.20;897.63;;;;;;;-0.48;75.29;101797.16;691291;28;46264;-70
2021/12/12 01:26:50;;;;;;;903.67;851.33;;;;;;;-0.48;75.56;101805.13;689421;28;90337;-70
2021/12/12 01:27:12;;;;;;;920.35;866.85;;;;;;;-0.49;75.42;101808.72;691971;28;22410;-69
2021/12/12 01:27:35;;;;;;;990.95;932.95;;;;;;;-0.51;75.70;101801.78;688785;28;45191;-70
2021/12/12 01:27:59;;;;;;;1005.50;946.05;;;;;;;-0.50;75.48;101803.47;687733;28;36012;-70
2021/12/12 01:28:24;;;;;;;996.28;937.78;;;;;;;-0.52;75.67;101795.59;686217;28;115194;-69
2021/12/12 01:28:49;;;;;;;1002.90;943.80;;;;;;;-0.51;75.56;101802.63;686098;28;115110;-70
2021/12/12 01:29:10;;;;;;;1006.33;946.47;;;;;;;-0.50;75.49;101800.81;685305;28;138124;-70
2021/12/12 01:29:31;;;;;;;992.83;934.40;;;;;;;-0.50;75.56;101806.13;689213;28;23402;-70
2021/12/12 01:29:54;;;;;;;1000.35;941.40;;;;;;;-0.49;75.59;101810.50;689232;28;22437;-70
2021/12/12 01:30:15;;;;;;;1009.33;949.75;;;;;;;-0.52;75.55;101803.56;688708;28;44377;-71
2021/12/12 01:30:36;;;;;;;997.22;938.38;;;;;;;-0.50;75.63;101803.47;688828;28;45232;-69
2021/12/12 01:31:02;;;;;;;1028.60;966.13;;;;;;;-0.52;75.62;101800.06;690391;28;910;-70
2021/12/12 01:31:28;;;;;;;1063.65;992.20;;;;;;;-0.53;75.47;101807.16;685983;28;115106;-71
2021/12/12 01:31:50;;;;;;;1079.07;999.90;;;;;;;-0.52;75.63;101808.00;685236;28;137665;-70
2021/12/12 01:32:21;;;;;;;1078.72;999.90;;;;;;;-0.55;75.36;101806.38;688622;28;44404;-69
2021/12/12 01:32:47;;;;;;;1080.95;999.90;;;;;;;-0.52;75.60;101806.22;684594;28;137549;-70
2021/12/12 01:33:10;;;;;;;1095.88;999.90;;;;;;;-0.50;75.58;101808.78;686266;28;114975;-70
2021/12/12 01:33:34;;;;;;;1075.80;999.90;;;;;;;-0.50;75.64;101808.78;686737;28;69412;-71
2021/12/12 01:34:08;;;;;;;1055.40;992.22;;;;;;;-0.51;75.69;101799.97;683832;28;92205;-70
2021/12/12 01:34:31;;;;;;;1021.78;961.53;;;;;;;-0.47;75.53;101808.63;683573;28;136107;-71
2021/12/12 01:34:53;;;;;;;1006.58;947.38;;;;;;;-0.47;75.53;101806.84;685238;28;67494;-71
2021/12/12 01:35:17;;;;;;;994.00;935.40;;;;;;;-0.51;75.45;101805.28;685161;28;44446;-71
2021/12/12 01:35:40;;;;;;;1007.25;947.65;;;;;;;-0.48;75.59;101807.78;688337;28;60022;-71
2021/12/12 01:36:06;;;;;;;1008.33;948.67;;;;;;;-0.49;75.43;101805.19;686309;28;69336;-71
2021/12/12 01:36:42;;;;;;;1007.42;947.63;;;;;;;-0.50;75.11;101806.13;685789;28;137368;-71
2021/12/12 01:37:12;;;;;;;1001.97;943.20;;;;;;;-0.50;75.40;101799.06;687887;28;72667;-71
2021/12/12 01:37:37;;;;;;;1018.40;958.30;;;;;;;-0.49;75.50;101805.19;684893;28;160684;-71
2021/12/12 01:38:53;;;;;;;946.45;891.42;;;;;;;-0.51;75.30;101805.28;684793;28;135770;-71
2021/12/12 01:39:18;;;;;;;924.60;870.83;;;;;;;-0.50;75.16;101803.47;682174;28;137384;-71
2021/12/12 01:39:43;;;;;;;952.47;896.78;;;;;;;-0.51;75.25;101807.94;683621;28;92248;-71
2021/12/12 01:40:12;;;;;;;972.85;915.88;;;;;;;-0.47;75.38;101808.63;686527;28;115051;-72
2021/12/12 01:40:33;;;;;;;969.72;913.05;;;;;;;-0.48;75.41;101812.25;685297;28;135899;-71
2021/12/12 01:40:57;;;;;;;959.03;902.97;;;;;;;-0.48;75.16;101807.78;685875;28;44359;-71
2021/12/12 01:41:20;;;;;;;936.08;881.63;;;;;;;-0.48;75.12;101814.91;685976;28;87934;-71
2021/12/12 01:41:57;;;;;;;936.13;881.72;;;;;;;-0.50;75.23;101817.63;687860;28;69215;-71
2021/12/12 01:42:22;;;;;;;943.60;888.70;;;;;;;-0.48;75.33;101815.75;685540;28;137482;-72
2021/12/12 01:42:47;;;;;;;933.85;879.58;;;;;;;-0.47;75.22;101814.81;684807;28;115261;-71
2021/12/12 01:43:20;;;;;;;928.38;874.47;;;;;;;-0.46;75.15;101808.56;686625;28;92289;-71
2021/12/12 01:43:46;;;;;;;951.90;896.13;;;;;;;-0.47;75.23;101817.47;685680;28;131327;-72
2021/12/12 01:44:18;;;;;;;966.90;910.30;;;;;;;-0.48;75.12;101812.25;688259;28;64328;-71
2021/12/12 01:44:45;;;;;;;952.03;896.38;;;;;;;-0.49;75.10;101807.84;688366;28;58860;-71
2021/12/12 01:45:10;;;;;;;941.38;886.65;;;;;;;-0.48;75.03;101805.13;682282;28;160952;-71
2021/12/12 01:45:34;;;;;;;921.20;867.75;;;;;;;-0.48;75.03;101814.91;686006;28;114781;-71
2021/12/12 01:46:01;;;;;;;929.95;875.92;;;;;;;-0.48;74.97;101818.41;685796;28;115336;-71
2021/12/12 01:46:26;;;;;;;938.90;884.30;;;;;;;-0.51;74.82;101817.69;685331;28;138457;-71
2021/12/12 01:46:52;;;;;;;941.78;887.05;;;;;;;-0.52;74.95;101813.31;689095;28;93487;-71
2021/12/12 01:47:21;;;;;;;936.35;882.03;;;;;;;-0.54;75.05;101810.75;688042;28;137640;-71
2021/12/12 01:47:50;;;;;;;944.58;889.78;;;;;;;-0.52;74.90;101816.81;687963;28;115239;-71
2021/12/12 01:48:16;;;;;;;942.17;887.38;;;;;;;-0.53;75.03;101811.59;686322;28;160936;-71
2021/12/12 01:48:42;;;;;;;937.38;882.90;;;;;;;-0.56;75.09;101807.31;687086;28;138127;-71
2021/12/12 01:49:09;;;;;;;951.60;896.28;;;;;;;-0.53;74.94;101811.59;685521;28;137962;-71
2021/12/12 01:49:32;;;;;;;982.78;925.28;;;;;;;-0.54;74.85;101813.41;685599;28;138162;-71
2021/12/12 01:49:56;;;;;;;976.78;919.78;;;;;;;-0.59;74.95;101813.63;688233;28;45255;-71